createdAt,value
2018-07-31T00:01:05.689Z,16.60
2018-07-31T00:05:09.936Z,16.60
2018-07-31T00:09:14.219Z,16.60
2018-07-31T00:13:18.534Z,16.60
2018-07-31T00:17:22.757Z,16.50
2018-07-31T00:21:27.018Z,16.50
2018-07-31T00:25:31.312Z,16.50
2018-07-31T00:29:35.509Z,16.50
2018-07-31T00:33:39.799Z,16.50
2018-07-31T00:37:44.065Z,16.50
2018-07-31T00:41:48.382Z,16.40
2018-07-31T00:45:52.607Z,16.40
2018-07-31T00:49:56.914Z,16.40
2018-07-31T00:54:01.165Z,16.40
2018-07-31T00:58:05.557Z,16.30
2018-07-31T01:02:09.971Z,16.30
2018-07-31T01:06:14.251Z,16.30
2018-07-31T01:10:18.543Z,16.30
2018-07-31T01:14:22.855Z,16.30
2018-07-31T01:18:27.070Z,16.20
2018-07-31T01:22:31.470Z,16.20
2018-07-31T01:26:35.877Z,16.30
2018-07-31T01:30:40.062Z,16.20
2018-07-31T01:34:44.332Z,16.10
2018-07-31T01:38:48.681Z,16.20
2018-07-31T01:42:52.971Z,16.10
2018-07-31T01:46:57.255Z,16.10
2018-07-31T01:51:01.611Z,16.10
2018-07-31T01:55:05.861Z,16.00
2018-07-31T01:59:10.166Z,16.00
2018-07-31T02:03:14.510Z,16.00
2018-07-31T02:07:18.748Z,16.00
2018-07-31T02:11:23.149Z,16.00
2018-07-31T02:15:27.560Z,16.00
2018-07-31T02:19:31.972Z,16.00
2018-07-31T02:23:36.242Z,16.00
2018-07-31T02:27:40.465Z,15.90
2018-07-31T02:31:44.726Z,15.90
2018-07-31T02:35:49.021Z,15.90
2018-07-31T02:39:53.259Z,15.90
2018-07-31T02:43:57.631Z,15.90
2018-07-31T02:48:01.878Z,15.80
2018-07-31T02:52:06.116Z,15.80
2018-07-31T02:56:10.402Z,15.80
2018-07-31T03:00:14.642Z,15.80
2018-07-31T03:04:18.905Z,15.70
2018-07-31T03:08:23.139Z,15.70
2018-07-31T03:12:27.424Z,15.70
2018-07-31T03:16:31.763Z,15.70
2018-07-31T03:20:35.989Z,15.70
2018-07-31T03:24:40.225Z,15.60
2018-07-31T03:28:44.881Z,15.60
2018-07-31T03:32:49.145Z,15.60
2018-07-31T03:36:53.460Z,15.60
2018-07-31T03:40:57.929Z,15.70
2018-07-31T03:45:02.172Z,15.60
2018-07-31T03:49:06.458Z,15.60
2018-07-31T03:53:10.877Z,15.60
2018-07-31T03:57:15.140Z,15.70
2018-07-31T04:01:19.506Z,15.70
2018-07-31T04:05:23.896Z,15.60
2018-07-31T04:09:28.827Z,15.70
2018-07-31T04:13:33.118Z,15.70
2018-07-31T04:17:37.450Z,15.60
2018-07-31T04:21:41.789Z,15.80
2018-07-31T04:25:46.164Z,15.80
2018-07-31T04:29:50.647Z,15.90
2018-07-31T04:33:55.015Z,16.10
2018-07-31T04:37:59.381Z,16.10
2018-07-31T04:42:03.649Z,16.20
2018-07-31T04:46:08.087Z,16.20
2018-07-31T04:50:12.305Z,16.30
2018-07-31T04:54:16.603Z,16.40
2018-07-31T04:58:20.807Z,16.50
2018-07-31T05:02:25.467Z,16.50
2018-07-31T05:06:29.867Z,16.60
2018-07-31T05:10:34.132Z,16.80
2018-07-31T05:14:38.557Z,16.80
2018-07-31T05:18:42.919Z,16.90
2018-07-31T05:22:47.111Z,17.00
2018-07-31T05:26:52.338Z,17.00
2018-07-31T05:30:57.042Z,17.20
2018-07-31T05:35:01.325Z,17.40
2018-07-31T05:39:08.583Z,17.50
2018-07-31T05:43:12.784Z,17.70
2018-07-31T05:47:17.456Z,17.90
2018-07-31T05:51:21.775Z,18.10
2018-07-31T05:55:26.016Z,18.20
2018-07-31T05:59:30.433Z,18.40
2018-07-31T06:03:34.735Z,18.50
2018-07-31T06:07:52.735Z,18.70
2018-07-31T06:11:56.983Z,18.80
2018-07-31T06:16:01.259Z,19.00
2018-07-31T06:20:10.332Z,19.20
2018-07-31T06:24:14.545Z,19.40
2018-07-31T06:28:18.755Z,19.50
2018-07-31T06:32:23.131Z,19.80
2018-07-31T06:36:27.362Z,20.00
2018-07-31T06:40:31.703Z,20.20
2018-07-31T06:44:36.043Z,20.40
2018-07-31T06:48:40.520Z,20.60
2018-07-31T06:52:44.819Z,20.70
2018-07-31T06:56:49.092Z,20.90
2018-07-31T07:00:53.288Z,21.20
2018-07-31T07:04:57.652Z,21.50
2018-07-31T07:09:01.888Z,21.70
2018-07-31T07:13:06.107Z,21.80
2018-07-31T07:17:10.382Z,22.00
2018-07-31T07:21:14.770Z,22.20
2018-07-31T07:25:19.123Z,22.40
2018-07-31T07:29:23.425Z,22.70
2018-07-31T07:33:27.707Z,23.10
2018-07-31T07:37:32.073Z,23.40
2018-07-31T07:41:36.372Z,23.70
2018-07-31T07:45:40.641Z,24.20
2018-07-31T07:49:44.951Z,24.40
2018-07-31T07:53:49.208Z,24.50
2018-07-31T07:57:53.507Z,24.70
2018-07-31T08:01:57.910Z,25.00
2018-07-31T08:06:02.204Z,25.40
2018-07-31T08:10:06.609Z,25.60
2018-07-31T08:14:10.960Z,25.90
2018-07-31T08:18:15.208Z,26.20
2018-07-31T08:22:19.716Z,26.50
2018-07-31T08:26:24.018Z,26.70
2018-07-31T08:30:28.252Z,26.90
2018-07-31T08:34:32.570Z,27.60
2018-07-31T08:38:36.979Z,28.20
2018-07-31T08:42:41.317Z,28.70
2018-07-31T08:46:45.677Z,29.10
2018-07-31T08:50:49.967Z,29.50
2018-07-31T08:54:54.280Z,30.40
2018-07-31T08:58:58.742Z,30.80
2018-07-31T09:03:02.995Z,31.50
2018-07-31T09:07:07.292Z,32.30
2018-07-31T09:11:11.831Z,33.90
2018-07-31T09:15:16.119Z,34.70
2018-07-31T09:19:20.477Z,34.90
2018-07-31T09:23:24.742Z,35.20
2018-07-31T09:27:29.092Z,35.60
2018-07-31T09:31:33.418Z,36.10
2018-07-31T09:35:37.851Z,36.30
2018-07-31T09:39:42.277Z,36.50
2018-07-31T09:43:47.008Z,35.50
2018-07-31T09:47:51.346Z,35.00
2018-07-31T09:51:55.708Z,34.90
2018-07-31T09:56:00.179Z,34.60
2018-07-31T10:00:05.544Z,35.20
2018-07-31T10:04:09.784Z,34.90
2018-07-31T10:08:19.296Z,34.50
2018-07-31T10:12:23.596Z,35.00
2018-07-31T10:16:27.927Z,36.50
2018-07-31T10:20:32.268Z,36.40
2018-07-31T10:24:36.533Z,37.00
2018-07-31T10:28:40.958Z,36.90
2018-07-31T10:32:45.243Z,37.30
2018-07-31T10:36:49.497Z,36.90
2018-07-31T10:40:53.885Z,37.70
2018-07-31T10:44:58.132Z,37.40
2018-07-31T10:49:02.461Z,36.50
2018-07-31T10:53:06.879Z,36.90
2018-07-31T10:57:11.089Z,37.50
2018-07-31T11:01:15.576Z,36.10
2018-07-31T11:05:19.817Z,36.60
2018-07-31T11:09:24.125Z,35.90
2018-07-31T11:13:28.349Z,35.70
2018-07-31T11:17:32.769Z,36.00
2018-07-31T11:21:37.057Z,36.50
2018-07-31T11:25:41.361Z,36.10
2018-07-31T11:29:45.831Z,35.80
2018-07-31T11:33:50.284Z,36.50
2018-07-31T11:37:54.734Z,38.30
2018-07-31T11:41:58.992Z,38.10
2018-07-31T11:46:03.418Z,37.40
2018-07-31T11:50:07.720Z,35.50
2018-07-31T11:54:11.930Z,34.50
2018-07-31T11:58:16.360Z,33.40
2018-07-31T12:02:21.191Z,34.30
2018-07-31T12:06:28.934Z,37.00
2018-07-31T12:10:35.927Z,38.20
2018-07-31T12:14:43.229Z,39.20
2018-07-31T12:18:51.101Z,38.80
2018-07-31T12:22:58.216Z,38.30
2018-07-31T12:27:04.600Z,39.70
2018-07-31T12:31:11.291Z,40.80
2018-07-31T12:35:16.678Z,40.10
2018-07-31T12:39:24.576Z,40.20
2018-07-31T12:43:29.402Z,39.00
2018-07-31T12:47:33.780Z,39.20
2018-07-31T12:51:38.541Z,39.70
2018-07-31T12:55:42.987Z,41.00
2018-07-31T12:59:47.300Z,40.70
2018-07-31T13:03:52.540Z,41.80
2018-07-31T13:07:58.138Z,41.90
2018-07-31T13:12:07.001Z,43.40
2018-07-31T13:16:15.582Z,43.20
2018-07-31T13:20:22.455Z,43.40
2018-07-31T13:24:27.133Z,43.60
2018-07-31T13:28:31.412Z,42.80
2018-07-31T13:32:35.734Z,44.10
2018-07-31T13:36:40.210Z,44.00
2018-07-31T13:40:44.587Z,42.90
2018-07-31T13:44:48.991Z,43.80
2018-07-31T13:48:53.444Z,44.00
2018-07-31T13:52:57.693Z,43.80
2018-07-31T13:57:02.134Z,43.90
2018-07-31T14:01:06.832Z,42.30
2018-07-31T14:05:11.305Z,41.90
2018-07-31T14:09:15.645Z,43.10
2018-07-31T14:13:20.018Z,43.60
2018-07-31T14:17:24.292Z,44.50
2018-07-31T14:21:28.867Z,42.70
2018-07-31T14:29:52.695Z,43.40
2018-07-31T14:33:57.126Z,43.20
2018-07-31T14:38:01.698Z,43.90
2018-07-31T14:42:05.954Z,43.80
2018-07-31T14:46:10.377Z,44.20
2018-07-31T14:50:14.731Z,43.90
2018-07-31T14:54:18.986Z,43.10
2018-07-31T14:58:23.455Z,42.60
2018-07-31T15:02:27.922Z,43.10
2018-07-31T15:06:32.248Z,43.20
2018-07-31T15:10:36.769Z,42.30
2018-07-31T15:14:41.016Z,42.70
2018-07-31T15:18:45.413Z,43.20
2018-07-31T15:22:49.981Z,42.30
2018-07-31T15:26:54.215Z,42.10
2018-07-31T15:30:58.598Z,42.20
2018-07-31T15:35:03.012Z,42.20
2018-07-31T15:39:10.441Z,41.40
2018-07-31T15:43:15.711Z,41.70
2018-07-31T15:47:20.293Z,40.40
2018-07-31T15:51:24.542Z,40.00
2018-07-31T15:55:28.969Z,40.50
2018-07-31T15:59:33.316Z,40.10
2018-07-31T16:03:37.571Z,39.60
2018-07-31T16:07:41.936Z,39.40
2018-07-31T16:11:46.380Z,39.00
2018-07-31T16:15:50.813Z,38.90
2018-07-31T16:19:55.039Z,37.90
2018-07-31T16:23:59.408Z,38.20
2018-07-31T16:28:03.779Z,37.90
2018-07-31T16:32:08.113Z,37.70
2018-07-31T16:36:12.455Z,35.80
2018-07-31T16:40:16.703Z,33.20
2018-07-31T16:44:21.210Z,32.10
2018-07-31T16:48:25.546Z,31.50
2018-07-31T16:52:30.161Z,31.00
2018-07-31T16:56:34.377Z,30.70
2018-07-31T17:00:38.723Z,30.30
2018-07-31T17:04:43.109Z,29.80
2018-07-31T17:08:48.949Z,29.60
2018-07-31T17:12:58.382Z,29.30
2018-07-31T17:17:02.789Z,29.00
2018-07-31T17:21:07.303Z,28.70
2018-07-31T17:25:11.495Z,28.40
2018-07-31T17:29:15.738Z,28.10
2018-07-31T17:33:20.030Z,27.90
2018-07-31T17:37:24.562Z,27.50
2018-07-31T17:41:28.852Z,27.30
2018-07-31T17:45:33.243Z,27.30
2018-07-31T17:49:37.517Z,27.00
2018-07-31T17:53:41.842Z,26.80
2018-07-31T17:57:49.314Z,26.60
2018-07-31T18:01:54.008Z,26.50
2018-07-31T18:05:58.611Z,26.20
2018-07-31T18:10:07.711Z,25.80
2018-07-31T18:14:12.589Z,25.50
2018-07-31T18:18:17.030Z,25.40
2018-07-31T18:22:21.836Z,25.30
2018-07-31T18:26:26.362Z,25.00
2018-07-31T18:30:31.203Z,24.70
2018-07-31T18:34:35.708Z,24.50
2018-07-31T18:38:40.435Z,24.40
2018-07-31T18:42:45.262Z,24.10
2018-07-31T18:46:49.944Z,23.90
2018-07-31T18:50:54.760Z,23.80
2018-07-31T18:54:59.523Z,23.50
2018-07-31T18:59:04.664Z,23.30
2018-07-31T19:03:09.493Z,23.20
2018-07-31T19:07:14.099Z,23.10
2018-07-31T19:11:18.909Z,22.90
2018-07-31T19:15:23.826Z,22.70
2018-07-31T19:19:29.097Z,22.60
2018-07-31T19:23:34.142Z,22.50
2018-07-31T19:27:39.089Z,22.40
2018-07-31T19:31:43.613Z,22.20
2018-07-31T19:35:47.924Z,22.20
2018-07-31T19:39:52.896Z,22.10
2018-07-31T19:43:57.582Z,21.90
2018-07-31T19:48:02.116Z,21.80
2018-07-31T19:52:06.934Z,21.80
2018-07-31T19:56:11.588Z,21.50
2018-07-31T20:00:16.448Z,21.50
2018-07-31T20:04:21.979Z,21.70
2018-07-31T20:08:26.705Z,21.50
2018-07-31T20:12:31.332Z,21.30
2018-07-31T20:16:36.082Z,21.20
2018-07-31T20:20:41.656Z,21.20
2018-07-31T20:24:45.966Z,21.00
2018-07-31T20:28:50.732Z,21.00
2018-07-31T20:32:55.255Z,20.90
2018-07-31T20:36:59.577Z,20.80
2018-07-31T20:41:03.920Z,20.80
2018-07-31T20:45:08.424Z,20.70
2018-07-31T20:49:12.711Z,20.60
2018-07-31T20:53:16.973Z,20.40
2018-07-31T20:57:21.388Z,20.40
2018-07-31T21:01:25.827Z,20.40
2018-07-31T21:05:30.053Z,20.40
2018-07-31T21:09:34.583Z,20.50
2018-07-31T21:13:38.851Z,20.40
2018-07-31T21:17:43.222Z,20.40
2018-07-31T21:21:47.534Z,20.50
2018-07-31T21:25:51.771Z,20.40
2018-07-31T21:29:55.969Z,20.40
2018-07-31T21:34:00.501Z,20.40
2018-07-31T21:38:04.744Z,20.40
2018-07-31T21:42:09.006Z,20.30
2018-07-31T21:46:13.356Z,20.20
2018-07-31T21:50:17.589Z,20.20
2018-07-31T21:54:21.896Z,20.20
2018-07-31T21:58:26.211Z,20.20
2018-07-31T22:02:30.477Z,20.20
2018-07-31T22:06:34.760Z,20.10
2018-07-31T22:10:39.054Z,20.10
2018-07-31T22:14:43.528Z,20.00
2018-07-31T22:18:47.784Z,19.90
2018-07-31T22:22:52.337Z,19.80
2018-07-31T22:26:56.580Z,19.70
2018-07-31T22:31:00.892Z,19.70
2018-07-31T22:35:05.126Z,19.60
2018-07-31T22:39:10.752Z,19.60
2018-07-31T22:43:15.118Z,19.40
2018-07-31T22:47:19.347Z,19.30
2018-07-31T22:51:23.752Z,19.30
2018-07-31T22:55:28.202Z,19.20
2018-07-31T22:59:32.423Z,19.10
2018-07-31T23:03:36.658Z,19.10
2018-07-31T23:07:41.083Z,19.00
2018-07-31T23:11:45.472Z,18.90
2018-07-31T23:15:49.817Z,18.90
2018-07-31T23:19:54.094Z,18.90
2018-07-31T23:23:58.334Z,18.90
2018-07-31T23:28:02.708Z,18.80
2018-07-31T23:32:06.968Z,18.80
2018-07-31T23:36:11.190Z,18.80
2018-07-31T23:40:15.592Z,18.70
2018-07-31T23:44:19.959Z,18.70
2018-07-31T23:48:24.312Z,18.50
2018-07-31T23:52:28.883Z,18.50
2018-07-31T23:56:33.094Z,18.40
